sensor_id;sensor_type;location;lat;lon;timestamp;P1;durP1;ratioP1;P2;durP2;ratioP2
35715;SDS011;21840;44.920;8.616;2023-03-11T00:01:48;3.58;;;1.10;;
35715;SDS011;21840;44.920;8.616;2023-03-11T00:04:14;4.13;;;0.95;;
35715;SDS011;21840;44.920;8.616;2023-03-11T00:06:39;2.47;;;1.08;;
35715;SDS011;21840;44.920;8.616;2023-03-11T00:09:05;1.52;;;1.00;;
35715;SDS011;21840;44.920;8.616;2023-03-11T00:11:30;4.13;;;0.90;;
35715;SDS011;21840;44.920;8.616;2023-03-11T00:13:56;1.77;;;0.80;;
35715;SDS011;21840;44.920;8.616;2023-03-11T00:16:22;7.65;;;1.00;;
35715;SDS011;21840;44.920;8.616;2023-03-11T00:18:50;4.20;;;1.00;;
35715;SDS011;21840;44.920;8.616;2023-03-11T00:21:17;2.08;;;1.10;;
35715;SDS011;21840;44.920;8.616;2023-03-11T00:23:44;3.53;;;0.93;;
35715;SDS011;21840;44.920;8.616;2023-03-11T00:26:10;3.05;;;0.90;;
35715;SDS011;21840;44.920;8.616;2023-03-11T00:28:36;1.98;;;0.93;;
35715;SDS011;21840;44.920;8.616;2023-03-11T00:31:02;1.25;;;0.90;;
35715;SDS011;21840;44.920;8.616;2023-03-11T00:33:28;1.63;;;0.90;;
35715;SDS011;21840;44.920;8.616;2023-03-11T00:35:53;4.22;;;1.40;;
35715;SDS011;21840;44.920;8.616;2023-03-11T00:38:20;3.00;;;1.02;;
35715;SDS011;21840;44.920;8.616;2023-03-11T00:40:46;3.25;;;1.10;;
35715;SDS011;21840;44.920;8.616;2023-03-11T00:43:12;4.47;;;1.17;;
35715;SDS011;21840;44.920;8.616;2023-03-11T00:45:38;2.58;;;1.10;;
35715;SDS011;21840;44.920;8.616;2023-03-11T00:48:04;5.18;;;1.17;;
35715;SDS011;21840;44.920;8.616;2023-03-11T00:50:31;8.73;;;1.35;;
35715;SDS011;21840;44.920;8.616;2023-03-11T00:52:58;7.88;;;1.40;;
35715;SDS011;21840;44.920;8.616;2023-03-11T00:55:25;10.23;;;1.70;;
35715;SDS011;21840;44.920;8.616;2023-03-11T00:57:55;10.15;;;1.75;;
35715;SDS011;21840;44.920;8.616;2023-03-11T01:00:28;3.72;;;1.10;;
35715;SDS011;21840;44.920;8.616;2023-03-11T01:02:54;4.20;;;1.20;;
35715;SDS011;21840;44.920;8.616;2023-03-11T01:05:22;3.10;;;1.27;;
35715;SDS011;21840;44.920;8.616;2023-03-11T01:07:49;4.75;;;1.40;;
35715;SDS011;21840;44.920;8.616;2023-03-11T01:10:15;5.80;;;1.20;;
35715;SDS011;21840;44.920;8.616;2023-03-11T01:12:41;4.82;;;1.10;;
35715;SDS011;21840;44.920;8.616;2023-03-11T01:15:08;3.03;;;1.10;;
35715;SDS011;21840;44.920;8.616;2023-03-11T01:17:40;1.83;;;0.90;;
35715;SDS011;21840;44.920;8.616;2023-03-11T01:20:06;2.15;;;1.15;;
35715;SDS011;21840;44.920;8.616;2023-03-11T01:22:33;3.42;;;0.90;;
35715;SDS011;21840;44.920;8.616;2023-03-11T01:25:00;1.23;;;0.85;;
35715;SDS011;21840;44.920;8.616;2023-03-11T01:27:25;6.18;;;1.25;;
35715;SDS011;21840;44.920;8.616;2023-03-11T01:29:52;6.63;;;0.90;;
35715;SDS011;21840;44.920;8.616;2023-03-11T01:32:18;5.25;;;1.08;;
35715;SDS011;21840;44.920;8.616;2023-03-11T01:34:44;8.93;;;1.30;;
35715;SDS011;21840;44.920;8.616;2023-03-11T01:37:09;4.20;;;0.90;;
35715;SDS011;21840;44.920;8.616;2023-03-11T01:39:35;3.42;;;1.20;;
35715;SDS011;21840;44.920;8.616;2023-03-11T01:42:01;3.80;;;1.20;;
35715;SDS011;21840;44.920;8.616;2023-03-11T01:44:27;4.30;;;1.50;;
35715;SDS011;21840;44.920;8.616;2023-03-11T01:49:25;4.07;;;1.30;;
35715;SDS011;21840;44.920;8.616;2023-03-11T01:51:51;2.17;;;1.20;;
35715;SDS011;21840;44.920;8.616;2023-03-11T01:54:21;3.85;;;1.40;;
35715;SDS011;21840;44.920;8.616;2023-03-11T01:56:51;2.05;;;0.93;;
35715;SDS011;21840;44.920;8.616;2023-03-11T01:59:21;3.08;;;1.30;;
35715;SDS011;21840;44.920;8.616;2023-03-11T02:01:52;1.83;;;1.15;;
35715;SDS011;21840;44.920;8.616;2023-03-11T02:04:26;5.47;;;1.65;;
35715;SDS011;21840;44.920;8.616;2023-03-11T02:06:54;3.05;;;1.27;;
35715;SDS011;21840;44.920;8.616;2023-03-11T02:09:20;7.75;;;1.40;;
35715;SDS011;21840;44.920;8.616;2023-03-11T02:11:48;2.63;;;1.30;;
35715;SDS011;21840;44.920;8.616;2023-03-11T02:14:15;6.40;;;1.45;;
35715;SDS011;21840;44.920;8.616;2023-03-11T02:16:41;3.22;;;1.35;;
35715;SDS011;21840;44.920;8.616;2023-03-11T02:22:00;6.47;;;1.40;;
35715;SDS011;21840;44.920;8.616;2023-03-11T02:24:40;4.43;;;1.50;;
35715;SDS011;21840;44.920;8.616;2023-03-11T02:27:12;3.17;;;1.58;;
35715;SDS011;21840;44.920;8.616;2023-03-11T02:29:41;4.57;;;1.50;;
35715;SDS011;21840;44.920;8.616;2023-03-11T02:32:08;5.13;;;1.45;;
35715;SDS011;21840;44.920;8.616;2023-03-11T02:34:39;1.60;;;1.10;;
35715;SDS011;21840;44.920;8.616;2023-03-11T02:37:06;10.63;;;1.63;;
35715;SDS011;21840;44.920;8.616;2023-03-11T02:39:35;4.15;;;1.20;;
35715;SDS011;21840;44.920;8.616;2023-03-11T02:42:24;7.68;;;1.48;;
35715;SDS011;21840;44.920;8.616;2023-03-11T02:45:02;5.60;;;1.98;;
35715;SDS011;21840;44.920;8.616;2023-03-11T02:47:32;4.13;;;1.52;;
35715;SDS011;21840;44.920;8.616;2023-03-11T02:50:01;7.45;;;1.65;;
35715;SDS011;21840;44.920;8.616;2023-03-11T02:52:31;3.28;;;1.60;;
35715;SDS011;21840;44.920;8.616;2023-03-11T02:54:58;6.28;;;1.60;;
35715;SDS011;21840;44.920;8.616;2023-03-11T02:57:24;2.17;;;1.20;;
35715;SDS011;21840;44.920;8.616;2023-03-11T02:59:49;2.97;;;1.40;;
35715;SDS011;21840;44.920;8.616;2023-03-11T03:02:15;6.05;;;1.55;;
35715;SDS011;21840;44.920;8.616;2023-03-11T03:04:41;4.60;;;1.30;;
35715;SDS011;21840;44.920;8.616;2023-03-11T03:07:07;4.53;;;1.60;;
35715;SDS011;21840;44.920;8.616;2023-03-11T03:09:32;6.85;;;1.60;;
35715;SDS011;21840;44.920;8.616;2023-03-11T03:11:59;6.38;;;1.60;;
35715;SDS011;21840;44.920;8.616;2023-03-11T03:14:25;4.05;;;1.92;;
35715;SDS011;21840;44.920;8.616;2023-03-11T03:16:51;4.30;;;1.70;;
35715;SDS011;21840;44.920;8.616;2023-03-11T03:19:17;7.57;;;1.83;;
35715;SDS011;21840;44.920;8.616;2023-03-11T03:21:43;11.35;;;1.92;;
35715;SDS011;21840;44.920;8.616;2023-03-11T03:24:09;6.38;;;1.80;;
35715;SDS011;21840;44.920;8.616;2023-03-11T03:26:36;7.93;;;1.73;;
35715;SDS011;21840;44.920;8.616;2023-03-11T03:29:03;5.45;;;1.60;;
35715;SDS011;21840;44.920;8.616;2023-03-11T03:31:29;4.45;;;1.25;;
35715;SDS011;21840;44.920;8.616;2023-03-11T03:33:56;5.90;;;1.77;;
35715;SDS011;21840;44.920;8.616;2023-03-11T03:36:22;5.43;;;1.85;;
35715;SDS011;21840;44.920;8.616;2023-03-11T03:38:54;5.80;;;1.80;;
35715;SDS011;21840;44.920;8.616;2023-03-11T03:41:20;7.50;;;1.92;;
35715;SDS011;21840;44.920;8.616;2023-03-11T03:43:48;3.92;;;1.70;;
35715;SDS011;21840;44.920;8.616;2023-03-11T03:46:14;8.95;;;1.88;;
35715;SDS011;21840;44.920;8.616;2023-03-11T03:48:44;6.95;;;1.80;;
35715;SDS011;21840;44.920;8.616;2023-03-11T03:51:11;2.95;;;1.27;;
35715;SDS011;21840;44.920;8.616;2023-03-11T03:53:42;7.55;;;1.67;;
35715;SDS011;21840;44.920;8.616;2023-03-11T03:56:12;3.10;;;1.88;;
35715;SDS011;21840;44.920;8.616;2023-03-11T03:58:39;3.22;;;1.38;;
35715;SDS011;21840;44.920;8.616;2023-03-11T04:01:06;2.60;;;1.45;;
35715;SDS011;21840;44.920;8.616;2023-03-11T04:03:32;5.35;;;1.80;;
35715;SDS011;21840;44.920;8.616;2023-03-11T04:06:23;12.32;;;2.13;;
35715;SDS011;21840;44.920;8.616;2023-03-11T04:08:56;3.25;;;1.60;;
35715;SDS011;21840;44.920;8.616;2023-03-11T04:11:27;4.00;;;1.90;;
35715;SDS011;21840;44.920;8.616;2023-03-11T04:13:53;8.90;;;1.48;;
35715;SDS011;21840;44.920;8.616;2023-03-11T04:16:19;7.63;;;2.42;;
35715;SDS011;21840;44.920;8.616;2023-03-11T04:18:46;8.57;;;2.20;;
35715;SDS011;21840;44.920;8.616;2023-03-11T04:21:12;15.02;;;2.88;;
35715;SDS011;21840;44.920;8.616;2023-03-11T04:23:38;4.75;;;2.22;;
35715;SDS011;21840;44.920;8.616;2023-03-11T04:26:05;3.60;;;1.55;;
35715;SDS011;21840;44.920;8.616;2023-03-11T04:28:30;4.90;;;1.92;;
35715;SDS011;21840;44.920;8.616;2023-03-11T04:30:57;4.22;;;1.40;;
35715;SDS011;21840;44.920;8.616;2023-03-11T04:33:22;10.18;;;1.63;;
35715;SDS011;21840;44.920;8.616;2023-03-11T04:35:49;5.30;;;2.05;;
35715;SDS011;21840;44.920;8.616;2023-03-11T04:38:16;10.10;;;2.13;;
35715;SDS011;21840;44.920;8.616;2023-03-11T04:40:42;6.43;;;2.00;;
35715;SDS011;21840;44.920;8.616;2023-03-11T04:43:08;10.95;;;1.92;;
35715;SDS011;21840;44.920;8.616;2023-03-11T04:45:36;7.50;;;2.15;;
35715;SDS011;21840;44.920;8.616;2023-03-11T04:48:03;8.35;;;2.67;;
35715;SDS011;21840;44.920;8.616;2023-03-11T04:50:30;7.18;;;2.40;;
35715;SDS011;21840;44.920;8.616;2023-03-11T04:52:56;6.63;;;2.83;;
35715;SDS011;21840;44.920;8.616;2023-03-11T04:55:22;8.02;;;2.70;;
35715;SDS011;21840;44.920;8.616;2023-03-11T04:57:48;9.40;;;2.97;;
35715;SDS011;21840;44.920;8.616;2023-03-11T05:00:14;8.10;;;2.53;;
35715;SDS011;21840;44.920;8.616;2023-03-11T05:02:44;6.97;;;2.17;;
35715;SDS011;21840;44.920;8.616;2023-03-11T05:05:10;6.13;;;2.80;;
35715;SDS011;21840;44.920;8.616;2023-03-11T05:07:37;4.00;;;2.30;;
35715;SDS011;21840;44.920;8.616;2023-03-11T05:10:04;6.93;;;2.50;;
35715;SDS011;21840;44.920;8.616;2023-03-11T05:12:32;6.22;;;2.13;;
35715;SDS011;21840;44.920;8.616;2023-03-11T05:14:57;10.30;;;2.35;;
35715;SDS011;21840;44.920;8.616;2023-03-11T05:17:23;7.88;;;2.30;;
35715;SDS011;21840;44.920;8.616;2023-03-11T05:19:50;10.23;;;3.15;;
35715;SDS011;21840;44.920;8.616;2023-03-11T05:22:22;5.82;;;2.30;;
35715;SDS011;21840;44.920;8.616;2023-03-11T05:24:48;5.22;;;2.20;;
35715;SDS011;21840;44.920;8.616;2023-03-11T05:27:14;6.47;;;2.10;;
35715;SDS011;21840;44.920;8.616;2023-03-11T05:29:45;3.67;;;2.20;;
35715;SDS011;21840;44.920;8.616;2023-03-11T05:32:11;7.15;;;2.40;;
35715;SDS011;21840;44.920;8.616;2023-03-11T05:34:38;5.53;;;1.92;;
35715;SDS011;21840;44.920;8.616;2023-03-11T05:37:04;11.18;;;2.35;;
35715;SDS011;21840;44.920;8.616;2023-03-11T05:39:30;11.63;;;2.92;;
35715;SDS011;21840;44.920;8.616;2023-03-11T05:41:56;9.18;;;2.40;;
35715;SDS011;21840;44.920;8.616;2023-03-11T05:44:22;9.43;;;2.00;;
35715;SDS011;21840;44.920;8.616;2023-03-11T05:46:48;6.60;;;2.05;;
35715;SDS011;21840;44.920;8.616;2023-03-11T05:49:14;8.43;;;2.63;;
35715;SDS011;21840;44.920;8.616;2023-03-11T05:51:39;5.35;;;2.22;;
35715;SDS011;21840;44.920;8.616;2023-03-11T05:54:06;8.45;;;2.80;;
35715;SDS011;21840;44.920;8.616;2023-03-11T05:56:40;6.82;;;2.53;;
35715;SDS011;21840;44.920;8.616;2023-03-11T05:59:07;11.05;;;2.70;;
35715;SDS011;21840;44.920;8.616;2023-03-11T06:01:35;4.50;;;2.47;;
35715;SDS011;21840;44.920;8.616;2023-03-11T06:04:00;6.18;;;2.50;;
35715;SDS011;21840;44.920;8.616;2023-03-11T06:06:27;8.02;;;2.72;;
35715;SDS011;21840;44.920;8.616;2023-03-11T06:08:53;7.10;;;2.75;;
35715;SDS011;21840;44.920;8.616;2023-03-11T06:11:20;9.40;;;3.63;;
35715;SDS011;21840;44.920;8.616;2023-03-11T06:13:53;9.23;;;3.25;;
35715;SDS011;21840;44.920;8.616;2023-03-11T06:16:22;10.38;;;2.80;;
35715;SDS011;21840;44.920;8.616;2023-03-11T06:18:48;5.32;;;2.63;;
35715;SDS011;21840;44.920;8.616;2023-03-11T06:21:15;12.93;;;3.92;;
35715;SDS011;21840;44.920;8.616;2023-03-11T06:23:43;7.40;;;2.45;;
35715;SDS011;21840;44.920;8.616;2023-03-11T06:26:11;10.48;;;2.70;;
35715;SDS011;21840;44.920;8.616;2023-03-11T06:28:41;9.10;;;2.72;;
35715;SDS011;21840;44.920;8.616;2023-03-11T06:31:08;8.95;;;2.30;;
35715;SDS011;21840;44.920;8.616;2023-03-11T06:33:35;5.70;;;2.00;;
35715;SDS011;21840;44.920;8.616;2023-03-11T06:36:02;5.55;;;2.22;;
35715;SDS011;21840;44.920;8.616;2023-03-11T06:38:28;9.52;;;2.22;;
35715;SDS011;21840;44.920;8.616;2023-03-11T06:40:57;16.48;;;2.55;;
35715;SDS011;21840;44.920;8.616;2023-03-11T06:43:24;7.97;;;2.40;;
35715;SDS011;21840;44.920;8.616;2023-03-11T06:45:50;8.05;;;2.50;;
35715;SDS011;21840;44.920;8.616;2023-03-11T06:48:16;6.40;;;2.25;;
35715;SDS011;21840;44.920;8.616;2023-03-11T06:50:42;11.60;;;2.70;;
35715;SDS011;21840;44.920;8.616;2023-03-11T06:53:07;8.52;;;3.42;;
35715;SDS011;21840;44.920;8.616;2023-03-11T06:55:34;14.75;;;3.00;;
35715;SDS011;21840;44.920;8.616;2023-03-11T06:58:01;7.63;;;2.78;;
35715;SDS011;21840;44.920;8.616;2023-03-11T07:00:26;7.93;;;2.42;;
35715;SDS011;21840;44.920;8.616;2023-03-11T07:02:56;7.90;;;3.90;;
35715;SDS011;21840;44.920;8.616;2023-03-11T07:05:23;13.35;;;5.78;;
35715;SDS011;21840;44.920;8.616;2023-03-11T07:07:53;12.25;;;5.20;;
35715;SDS011;21840;44.920;8.616;2023-03-11T07:10:20;20.20;;;4.85;;
35715;SDS011;21840;44.920;8.616;2023-03-11T07:12:46;16.98;;;3.80;;
35715;SDS011;21840;44.920;8.616;2023-03-11T07:15:11;9.93;;;3.65;;
35715;SDS011;21840;44.920;8.616;2023-03-11T07:17:38;14.00;;;2.85;;
35715;SDS011;21840;44.920;8.616;2023-03-11T07:20:04;8.75;;;2.30;;
35715;SDS011;21840;44.920;8.616;2023-03-11T07:22:30;8.77;;;2.47;;
35715;SDS011;21840;44.920;8.616;2023-03-11T07:24:55;11.60;;;3.13;;
35715;SDS011;21840;44.920;8.616;2023-03-11T07:27:21;14.00;;;4.97;;
35715;SDS011;21840;44.920;8.616;2023-03-11T07:29:46;11.27;;;5.10;;
35715;SDS011;21840;44.920;8.616;2023-03-11T07:32:12;19.88;;;7.57;;
35715;SDS011;21840;44.920;8.616;2023-03-11T07:34:37;17.17;;;7.28;;
35715;SDS011;21840;44.920;8.616;2023-03-11T07:37:03;17.13;;;7.32;;
35715;SDS011;21840;44.920;8.616;2023-03-11T07:39:28;17.50;;;6.93;;
35715;SDS011;21840;44.920;8.616;2023-03-11T07:41:54;19.25;;;6.30;;
35715;SDS011;21840;44.920;8.616;2023-03-11T07:44:19;19.17;;;6.40;;
35715;SDS011;21840;44.920;8.616;2023-03-11T07:46:45;16.73;;;5.47;;
35715;SDS011;21840;44.920;8.616;2023-03-11T07:49:11;12.00;;;4.20;;
35715;SDS011;21840;44.920;8.616;2023-03-11T07:51:37;23.38;;;4.10;;
35715;SDS011;21840;44.920;8.616;2023-03-11T07:54:05;11.85;;;4.65;;
35715;SDS011;21840;44.920;8.616;2023-03-11T07:56:32;7.68;;;3.53;;
35715;SDS011;21840;44.920;8.616;2023-03-11T07:58:59;22.52;;;5.88;;
35715;SDS011;21840;44.920;8.616;2023-03-11T08:01:26;9.27;;;3.95;;
35715;SDS011;21840;44.920;8.616;2023-03-11T08:03:54;7.80;;;3.15;;
35715;SDS011;21840;44.920;8.616;2023-03-11T08:06:25;16.77;;;3.42;;
35715;SDS011;21840;44.920;8.616;2023-03-11T08:08:53;6.28;;;2.63;;
35715;SDS011;21840;44.920;8.616;2023-03-11T08:11:19;12.02;;;2.70;;
35715;SDS011;21840;44.920;8.616;2023-03-11T08:13:45;4.60;;;2.30;;
35715;SDS011;21840;44.920;8.616;2023-03-11T08:16:13;3.85;;;2.05;;
35715;SDS011;21840;44.920;8.616;2023-03-11T08:18:40;4.03;;;1.90;;
35715;SDS011;21840;44.920;8.616;2023-03-11T08:21:07;6.38;;;2.40;;
35715;SDS011;21840;44.920;8.616;2023-03-11T08:23:34;6.95;;;2.25;;
35715;SDS011;21840;44.920;8.616;2023-03-11T08:26:03;6.70;;;2.13;;
35715;SDS011;21840;44.920;8.616;2023-03-11T08:28:34;8.32;;;2.70;;
35715;SDS011;21840;44.920;8.616;2023-03-11T08:31:00;5.93;;;2.47;;
35715;SDS011;21840;44.920;8.616;2023-03-11T08:33:26;8.68;;;1.90;;
35715;SDS011;21840;44.920;8.616;2023-03-11T08:35:52;7.10;;;2.25;;
35715;SDS011;21840;44.920;8.616;2023-03-11T08:38:17;4.50;;;1.90;;
35715;SDS011;21840;44.920;8.616;2023-03-11T08:40:43;4.30;;;1.63;;
35715;SDS011;21840;44.920;8.616;2023-03-11T08:43:11;4.65;;;1.73;;
35715;SDS011;21840;44.920;8.616;2023-03-11T08:45:38;3.28;;;1.50;;
35715;SDS011;21840;44.920;8.616;2023-03-11T08:48:05;3.47;;;1.67;;
35715;SDS011;21840;44.920;8.616;2023-03-11T08:50:30;7.00;;;1.40;;
35715;SDS011;21840;44.920;8.616;2023-03-11T08:52:56;5.55;;;1.65;;
35715;SDS011;21840;44.920;8.616;2023-03-11T08:55:24;7.03;;;2.13;;
35715;SDS011;21840;44.920;8.616;2023-03-11T08:57:52;3.88;;;2.15;;
35715;SDS011;21840;44.920;8.616;2023-03-11T09:00:18;8.00;;;1.80;;
35715;SDS011;21840;44.920;8.616;2023-03-11T09:02:44;5.70;;;2.30;;
35715;SDS011;21840;44.920;8.616;2023-03-11T09:05:09;10.18;;;2.65;;
35715;SDS011;21840;44.920;8.616;2023-03-11T09:07:35;8.52;;;1.70;;
35715;SDS011;21840;44.920;8.616;2023-03-11T09:10:00;3.95;;;1.33;;
35715;SDS011;21840;44.920;8.616;2023-03-11T09:12:27;6.15;;;1.92;;
35715;SDS011;21840;44.920;8.616;2023-03-11T09:14:52;7.00;;;1.80;;
35715;SDS011;21840;44.920;8.616;2023-03-11T09:17:18;5.97;;;1.67;;
35715;SDS011;21840;44.920;8.616;2023-03-11T09:19:44;9.10;;;2.33;;
35715;SDS011;21840;44.920;8.616;2023-03-11T09:22:10;5.47;;;2.15;;
35715;SDS011;21840;44.920;8.616;2023-03-11T09:24:35;5.70;;;1.60;;
35715;SDS011;21840;44.920;8.616;2023-03-11T09:27:01;5.93;;;1.75;;
35715;SDS011;21840;44.920;8.616;2023-03-11T09:29:26;4.30;;;2.08;;
35715;SDS011;21840;44.920;8.616;2023-03-11T09:31:52;14.20;;;3.60;;
35715;SDS011;21840;44.920;8.616;2023-03-11T09:34:18;10.73;;;4.47;;
35715;SDS011;21840;44.920;8.616;2023-03-11T09:36:43;6.55;;;3.47;;
35715;SDS011;21840;44.920;8.616;2023-03-11T09:39:10;13.75;;;2.80;;
35715;SDS011;21840;44.920;8.616;2023-03-11T09:42:09;1.67;;;1.20;;
35715;SDS011;21840;44.920;8.616;2023-03-11T09:50:52;6.20;;;1.60;;
35715;SDS011;21840;44.920;8.616;2023-03-11T09:56:00;5.40;;;1.52;;
35715;SDS011;21840;44.920;8.616;2023-03-11T10:00:54;7.30;;;3.20;;
35715;SDS011;21840;44.920;8.616;2023-03-11T10:03:24;10.50;;;3.90;;
35715;SDS011;21840;44.920;8.616;2023-03-11T10:05:53;16.48;;;6.78;;
35715;SDS011;21840;44.920;8.616;2023-03-11T10:08:39;10.30;;;3.65;;
35715;SDS011;21840;44.920;8.616;2023-03-11T10:13:53;7.28;;;2.40;;
35715;SDS011;21840;44.920;8.616;2023-03-11T10:16:30;3.05;;;1.10;;
35715;SDS011;21840;44.920;8.616;2023-03-11T10:19:10;3.97;;;1.27;;
35715;SDS011;21840;44.920;8.616;2023-03-11T10:22:10;17.92;;;1.80;;
35715;SDS011;21840;44.920;8.616;2023-03-11T10:27:16;3.33;;;1.25;;
35715;SDS011;21840;44.920;8.616;2023-03-11T10:32:23;4.40;;;1.25;;
35715;SDS011;21840;44.920;8.616;2023-03-11T10:34:59;4.45;;;1.10;;
35715;SDS011;21840;44.920;8.616;2023-03-11T10:37:46;9.90;;;1.90;;
35715;SDS011;21840;44.920;8.616;2023-03-11T10:40:21;3.58;;;1.02;;
35715;SDS011;21840;44.920;8.616;2023-03-11T10:42:48;3.65;;;1.17;;
35715;SDS011;21840;44.920;8.616;2023-03-11T10:45:16;3.92;;;1.17;;
35715;SDS011;21840;44.920;8.616;2023-03-11T10:47:44;3.15;;;1.38;;
35715;SDS011;21840;44.920;8.616;2023-03-11T10:50:16;2.13;;;1.08;;
35715;SDS011;21840;44.920;8.616;2023-03-11T10:55:43;1.83;;;1.05;;
35715;SDS011;21840;44.920;8.616;2023-03-11T10:58:18;2.75;;;1.40;;
35715;SDS011;21840;44.920;8.616;2023-03-11T11:00:58;2.75;;;1.20;;
35715;SDS011;21840;44.920;8.616;2023-03-11T11:03:29;3.33;;;0.80;;
35715;SDS011;21840;44.920;8.616;2023-03-11T11:06:02;0.80;;;0.70;;
35715;SDS011;21840;44.920;8.616;2023-03-11T11:08:29;2.35;;;0.80;;
35715;SDS011;21840;44.920;8.616;2023-03-11T11:10:56;2.05;;;0.75;;
35715;SDS011;21840;44.920;8.616;2023-03-11T11:13:25;4.10;;;1.00;;
35715;SDS011;21840;44.920;8.616;2023-03-11T11:19:07;0.85;;;0.65;;
35715;SDS011;21840;44.920;8.616;2023-03-11T11:29:45;0.50;;;0.50;;
35715;SDS011;21840;44.920;8.616;2023-03-11T11:34:41;2.38;;;0.80;;
35715;SDS011;21840;44.920;8.616;2023-03-11T11:37:16;1.35;;;0.50;;
35715;SDS011;21840;44.920;8.616;2023-03-11T11:40:03;1.38;;;0.85;;
35715;SDS011;21840;44.920;8.616;2023-03-11T11:42:37;0.57;;;0.50;;
35715;SDS011;21840;44.920;8.616;2023-03-11T11:46:05;1.45;;;0.90;;
35715;SDS011;21840;44.920;8.616;2023-03-11T11:50:45;0.65;;;0.45;;
35715;SDS011;21840;44.920;8.616;2023-03-11T11:53:35;1.08;;;0.55;;
35715;SDS011;21840;44.920;8.616;2023-03-11T11:56:03;0.60;;;0.60;;
35715;SDS011;21840;44.920;8.616;2023-03-11T11:58:29;2.58;;;0.60;;
35715;SDS011;21840;44.920;8.616;2023-03-11T12:14:54;4.03;;;0.90;;
35715;SDS011;21840;44.920;8.616;2023-03-11T12:17:26;1.65;;;0.93;;
35715;SDS011;21840;44.920;8.616;2023-03-11T12:19:59;1.00;;;0.88;;
35715;SDS011;21840;44.920;8.616;2023-03-11T12:25:22;1.73;;;0.80;;
35715;SDS011;21840;44.920;8.616;2023-03-11T12:30:31;1.48;;;0.80;;
35715;SDS011;21840;44.920;8.616;2023-03-11T12:33:04;1.95;;;0.90;;
35715;SDS011;21840;44.920;8.616;2023-03-11T12:35:37;1.83;;;0.80;;
35715;SDS011;21840;44.920;8.616;2023-03-11T12:46:00;4.10;;;1.20;;
35715;SDS011;21840;44.920;8.616;2023-03-11T12:54:34;2.42;;;0.70;;
35715;SDS011;21840;44.920;8.616;2023-03-11T12:57:26;0.98;;;0.70;;
35715;SDS011;21840;44.920;8.616;2023-03-11T13:05:21;2.20;;;0.90;;
35715;SDS011;21840;44.920;8.616;2023-03-11T13:08:18;1.27;;;0.70;;
35715;SDS011;21840;44.920;8.616;2023-03-11T13:10:50;0.43;;;0.43;;
35715;SDS011;21840;44.920;8.616;2023-03-11T13:16:44;3.63;;;0.90;;
35715;SDS011;21840;44.920;8.616;2023-03-11T13:18:46;0.80;;;0.47;;
35715;SDS011;21840;44.920;8.616;2023-03-11T13:21:37;2.13;;;1.00;;
35715;SDS011;21840;44.920;8.616;2023-03-11T13:26:43;0.80;;;0.70;;
35715;SDS011;21840;44.920;8.616;2023-03-11T13:32:24;2.35;;;0.45;;
35715;SDS011;21840;44.920;8.616;2023-03-11T13:40:42;1.88;;;0.60;;
35715;SDS011;21840;44.920;8.616;2023-03-11T13:43:19;0.55;;;0.40;;
35715;SDS011;21840;44.920;8.616;2023-03-11T13:45:46;4.75;;;0.47;;
35715;SDS011;21840;44.920;8.616;2023-03-11T13:48:21;1.40;;;0.68;;
35715;SDS011;21840;44.920;8.616;2023-03-11T13:51:03;0.40;;;0.40;;
35715;SDS011;21840;44.920;8.616;2023-03-11T13:53:37;0.40;;;0.40;;
35715;SDS011;21840;44.920;8.616;2023-03-11T13:56:17;0.85;;;0.52;;
35715;SDS011;21840;44.920;8.616;2023-03-11T13:58:47;0.63;;;0.43;;
35715;SDS011;21840;44.920;8.616;2023-03-11T14:01:15;5.75;;;0.38;;
35715;SDS011;21840;44.920;8.616;2023-03-11T14:03:42;0.85;;;0.40;;
35715;SDS011;21840;44.920;8.616;2023-03-11T14:06:15;0.45;;;0.30;;
35715;SDS011;21840;44.920;8.616;2023-03-11T14:08:43;0.50;;;0.50;;
35715;SDS011;21840;44.920;8.616;2023-03-11T14:11:27;0.75;;;0.30;;
35715;SDS011;21840;44.920;8.616;2023-03-11T14:13:53;1.50;;;0.40;;
35715;SDS011;21840;44.920;8.616;2023-03-11T14:16:20;2.05;;;0.55;;
35715;SDS011;21840;44.920;8.616;2023-03-11T14:19:05;1.33;;;0.70;;
35715;SDS011;21840;44.920;8.616;2023-03-11T14:21:42;1.00;;;0.70;;
35715;SDS011;21840;44.920;8.616;2023-03-11T14:24:15;4.35;;;0.40;;
35715;SDS011;21840;44.920;8.616;2023-03-11T14:26:43;0.43;;;0.43;;
35715;SDS011;21840;44.920;8.616;2023-03-11T14:29:18;0.70;;;0.40;;
35715;SDS011;21840;44.920;8.616;2023-03-11T14:31:47;1.67;;;0.30;;
35715;SDS011;21840;44.920;8.616;2023-03-11T14:34:14;4.28;;;0.93;;
35715;SDS011;21840;44.920;8.616;2023-03-11T14:36:43;3.33;;;0.50;;
35715;SDS011;21840;44.920;8.616;2023-03-11T14:41:49;0.40;;;0.40;;
35715;SDS011;21840;44.920;8.616;2023-03-11T14:44:19;1.30;;;0.32;;
35715;SDS011;21840;44.920;8.616;2023-03-11T14:46:46;3.17;;;0.50;;
35715;SDS011;21840;44.920;8.616;2023-03-11T14:49:17;1.02;;;0.60;;
35715;SDS011;21840;44.920;8.616;2023-03-11T14:51:46;3.10;;;0.68;;
35715;SDS011;21840;44.920;8.616;2023-03-11T14:54:19;1.65;;;0.60;;
35715;SDS011;21840;44.920;8.616;2023-03-11T14:56:57;0.50;;;0.47;;
35715;SDS011;21840;44.920;8.616;2023-03-11T14:59:28;0.60;;;0.57;;
35715;SDS011;21840;44.920;8.616;2023-03-11T15:04:50;1.88;;;0.57;;
35715;SDS011;21840;44.920;8.616;2023-03-11T15:07:18;0.50;;;0.47;;
35715;SDS011;21840;44.920;8.616;2023-03-11T15:09:44;0.90;;;0.70;;
35715;SDS011;21840;44.920;8.616;2023-03-11T15:12:33;2.83;;;0.70;;
35715;SDS011;21840;44.920;8.616;2023-03-11T15:15:24;2.30;;;0.50;;
35715;SDS011;21840;44.920;8.616;2023-03-11T15:17:53;1.70;;;0.70;;
35715;SDS011;21840;44.920;8.616;2023-03-11T15:20:25;2.50;;;0.38;;
35715;SDS011;21840;44.920;8.616;2023-03-11T15:22:56;6.72;;;0.98;;
35715;SDS011;21840;44.920;8.616;2023-03-11T15:25:31;2.40;;;1.10;;
35715;SDS011;21840;44.920;8.616;2023-03-11T15:28:12;1.80;;;0.70;;
35715;SDS011;21840;44.920;8.616;2023-03-11T15:31:13;1.92;;;0.77;;
35715;SDS011;21840;44.920;8.616;2023-03-11T15:33:45;0.95;;;0.50;;
35715;SDS011;21840;44.920;8.616;2023-03-11T15:41:46;1.15;;;0.60;;
35715;SDS011;21840;44.920;8.616;2023-03-11T15:47:12;2.88;;;0.80;;
35715;SDS011;21840;44.920;8.616;2023-03-11T15:49:42;3.38;;;0.60;;
35715;SDS011;21840;44.920;8.616;2023-03-11T15:52:08;4.03;;;0.60;;
35715;SDS011;21840;44.920;8.616;2023-03-11T15:54:34;1.65;;;0.52;;
35715;SDS011;21840;44.920;8.616;2023-03-11T15:57:00;2.33;;;0.65;;
35715;SDS011;21840;44.920;8.616;2023-03-11T15:59:28;0.85;;;0.60;;
35715;SDS011;21840;44.920;8.616;2023-03-11T16:01:54;1.35;;;0.50;;
35715;SDS011;21840;44.920;8.616;2023-03-11T16:04:20;2.20;;;0.80;;
35715;SDS011;21840;44.920;8.616;2023-03-11T16:06:46;0.85;;;0.50;;
35715;SDS011;21840;44.920;8.616;2023-03-11T16:09:13;1.15;;;0.60;;
35715;SDS011;21840;44.920;8.616;2023-03-11T16:11:40;8.68;;;4.45;;
35715;SDS011;21840;44.920;8.616;2023-03-11T16:14:09;7.68;;;1.75;;
35715;SDS011;21840;44.920;8.616;2023-03-11T16:16:42;1.80;;;0.95;;
35715;SDS011;21840;44.920;8.616;2023-03-11T16:19:08;1.23;;;1.00;;
35715;SDS011;21840;44.920;8.616;2023-03-11T16:21:35;2.30;;;1.42;;
35715;SDS011;21840;44.920;8.616;2023-03-11T16:26:33;1.90;;;1.20;;
35715;SDS011;21840;44.920;8.616;2023-03-11T16:28:59;2.58;;;1.20;;
35715;SDS011;21840;44.920;8.616;2023-03-11T16:31:25;4.90;;;1.00;;
35715;SDS011;21840;44.920;8.616;2023-03-11T16:33:52;4.30;;;0.73;;
35715;SDS011;21840;44.920;8.616;2023-03-11T16:36:17;1.88;;;0.75;;
35715;SDS011;21840;44.920;8.616;2023-03-11T16:38:44;3.17;;;0.88;;
35715;SDS011;21840;44.920;8.616;2023-03-11T16:41:11;2.13;;;0.70;;
35715;SDS011;21840;44.920;8.616;2023-03-11T16:43:36;1.13;;;0.80;;
35715;SDS011;21840;44.920;8.616;2023-03-11T16:46:02;4.25;;;0.75;;
35715;SDS011;21840;44.920;8.616;2023-03-11T16:48:28;2.05;;;0.88;;
35715;SDS011;21840;44.920;8.616;2023-03-11T16:50:53;1.15;;;0.75;;